VHIDP WATR-YCTI
Flight info
| Callsign | VHIDP |
|---|---|
| Flight time | N/A |
| Altitude | 500 |
| Route | YCTI |
| Aircraft | AEST/L-SDFGRY/S |
Departure
| Time | N/A |
|---|---|
| Airport | David Constantijn Saudale Airport (WATR) |
Arrival
| Time | 2025-12-29 10:26 |
|---|---|
| Airport | Cockatoo Island Airport (YCTI) |
| Time | Latitude | Longitude | Altitude | Speed | Heading |
|---|---|---|---|---|---|
| 2025-12-29 08:50 | -10.76741 | 123.07328 | 456 ft | 4 kts | 4° |
| 2025-12-29 08:50 | -10.76814 | 123.07377 | 458 ft | 15 kts | 164° |
| 2025-12-29 08:51 | -10.77114 | 123.07120 | 459 ft | 11 kts | 195° |
| 2025-12-29 08:51 | -10.76917 | 123.07309 | 460 ft | 73 kts | 41° |
| 2025-12-29 08:52 | -10.76420 | 123.07739 | 465 ft | 106 kts | 43° |
| 2025-12-29 08:52 | -10.75848 | 123.09183 | 682 ft | 142 kts | 112° |
| 2025-12-29 08:53 | -10.77849 | 123.10136 | 808 ft | 183 kts | 169° |
| 2025-12-29 08:53 | -10.80477 | 123.10464 | 758 ft | 201 kts | 187° |
| 2025-12-29 08:54 | -10.83291 | 123.10665 | 458 ft | 209 kts | 163° |
| 2025-12-29 08:54 | -10.86128 | 123.10650 | 448 ft | 197 kts | 204° |
| 2025-12-29 08:55 | -10.89060 | 123.08627 | 428 ft | 157 kts | 185° |
| 2025-12-29 08:55 | -10.90179 | 123.08599 | 457 ft | 167 kts | 181° |
| 2025-12-29 08:56 | -10.92694 | 123.09079 | 428 ft | 193 kts | 168° |
| 2025-12-29 08:56 | -10.95301 | 123.09879 | 430 ft | 199 kts | 168° |
| 2025-12-29 08:57 | -10.99355 | 123.10983 | 435 ft | 205 kts | 166° |
| 2025-12-29 08:57 | -11.00719 | 123.11321 | 430 ft | 199 kts | 169° |
| 2025-12-29 08:58 | -11.03464 | 123.11742 | 419 ft | 204 kts | 179° |
| 2025-12-29 08:58 | -11.06238 | 123.12232 | 410 ft | 204 kts | 169° |
| 2025-12-29 08:59 | -11.08909 | 123.13057 | 421 ft | 204 kts | 161° |
| 2025-12-29 08:59 | -11.11617 | 123.13584 | 444 ft | 199 kts | 181° |
| 2025-12-29 09:00 | -11.14469 | 123.13945 | 419 ft | 209 kts | 177° |
| 2025-12-29 09:00 | -11.17389 | 123.14224 | 436 ft | 211 kts | 178° |
| 2025-12-29 09:01 | -11.20327 | 123.14496 | 434 ft | 213 kts | 178° |
| 2025-12-29 09:01 | -11.23257 | 123.14763 | 423 ft | 213 kts | 177° |
| 2025-12-29 09:02 | -11.26098 | 123.15035 | 442 ft | 198 kts | 177° |
| 2025-12-29 09:02 | -11.28890 | 123.15298 | 422 ft | 201 kts | 177° |
| 2025-12-29 09:03 | -11.31693 | 123.15564 | 414 ft | 203 kts | 178° |
| 2025-12-29 09:03 | -11.34456 | 123.15809 | 426 ft | 199 kts | 178° |
| 2025-12-29 09:04 | -11.37233 | 123.16071 | 424 ft | 205 kts | 178° |
| 2025-12-29 09:04 | -11.40101 | 123.16336 | 425 ft | 209 kts | 178° |
| 2025-12-29 09:05 | -11.42963 | 123.16595 | 428 ft | 203 kts | 176° |
| 2025-12-29 09:05 | -11.45781 | 123.16871 | 427 ft | 205 kts | 177° |
| 2025-12-29 09:06 | -11.48601 | 123.17136 | 432 ft | 203 kts | 177° |
| 2025-12-29 09:06 | -11.51409 | 123.17395 | 443 ft | 199 kts | 175° |
| 2025-12-29 09:07 | -11.55568 | 123.17800 | 434 ft | 206 kts | 178° |
| 2025-12-29 09:07 | -11.57009 | 123.17933 | 432 ft | 207 kts | 178° |
| 2025-12-29 09:08 | -11.59913 | 123.18201 | 426 ft | 208 kts | 178° |
| 2025-12-29 09:08 | -11.62753 | 123.18486 | 426 ft | 206 kts | 180° |
| 2025-12-29 09:09 | -11.65574 | 123.18705 | 429 ft | 203 kts | 179° |
| 2025-12-29 09:09 | -11.68420 | 123.18993 | 436 ft | 208 kts | 176° |
| 2025-12-29 09:10 | -11.71302 | 123.19270 | 424 ft | 209 kts | 178° |
| 2025-12-29 09:10 | -11.74148 | 123.19531 | 430 ft | 204 kts | 178° |
| 2025-12-29 09:11 | -11.76996 | 123.19800 | 429 ft | 206 kts | 178° |
| 2025-12-29 09:11 | -11.79887 | 123.20067 | 437 ft | 209 kts | 178° |
| 2025-12-29 09:12 | -11.82774 | 123.20359 | 435 ft | 211 kts | 180° |
| 2025-12-29 09:12 | -11.85672 | 123.20612 | 424 ft | 205 kts | 178° |
| 2025-12-29 09:13 | -11.88506 | 123.20865 | 443 ft | 205 kts | 175° |
| 2025-12-29 09:13 | -11.91377 | 123.21140 | 434 ft | 211 kts | 176° |
| 2025-12-29 09:14 | -11.94260 | 123.21425 | 430 ft | 207 kts | 177° |
| 2025-12-29 09:14 | -11.97118 | 123.21688 | 427 ft | 204 kts | 177° |
| 2025-12-29 09:15 | -11.99958 | 123.21958 | 431 ft | 203 kts | 178° |
| 2025-12-29 09:15 | -12.02793 | 123.22226 | 431 ft | 205 kts | 176° |
| 2025-12-29 09:16 | -12.05657 | 123.22503 | 429 ft | 207 kts | 179° |
| 2025-12-29 09:16 | -12.08496 | 123.22746 | 427 ft | 206 kts | 178° |
| 2025-12-29 09:17 | -12.11276 | 123.23019 | 434 ft | 203 kts | 178° |
| 2025-12-29 09:17 | -12.14129 | 123.23289 | 426 ft | 205 kts | 177° |
| 2025-12-29 09:18 | -12.17063 | 123.23560 | 425 ft | 210 kts | 176° |
| 2025-12-29 09:18 | -12.18512 | 123.23712 | 421 ft | 212 kts | 178° |
| 2025-12-29 09:19 | -12.22926 | 123.24114 | 425 ft | 208 kts | 177° |
| 2025-12-29 09:19 | -12.25886 | 123.24384 | 440 ft | 213 kts | 176° |
| 2025-12-29 09:20 | -12.28804 | 123.24685 | 425 ft | 209 kts | 178° |
| 2025-12-29 09:20 | -12.31637 | 123.24942 | 431 ft | 207 kts | 179° |
| 2025-12-29 09:21 | -12.34414 | 123.25212 | 422 ft | 205 kts | 179° |
| 2025-12-29 09:21 | -12.37227 | 123.25450 | 428 ft | 202 kts | 177° |
| 2025-12-29 09:22 | -12.39533 | 123.25687 | 438 ft | 196 kts | 179° |
| 2025-12-29 09:22 | -12.40935 | 123.25812 | 415 ft | 206 kts | 178° |
| 2025-12-29 09:23 | -12.45104 | 123.26200 | 420 ft | 203 kts | 178° |
| 2025-12-29 09:23 | -12.47989 | 123.26474 | 428 ft | 217 kts | 176° |
| 2025-12-29 09:24 | -12.50905 | 123.26764 | 434 ft | 212 kts | 176° |
| 2025-12-29 09:24 | -12.53813 | 123.27018 | 432 ft | 206 kts | 176° |
| 2025-12-29 09:25 | -12.56672 | 123.27294 | 430 ft | 205 kts | 177° |
| 2025-12-29 09:25 | -12.59553 | 123.27563 | 431 ft | 208 kts | 176° |
| 2025-12-29 09:25 | -12.60995 | 123.27721 | 427 ft | 207 kts | 178° |
| 2025-12-29 09:26 | -12.63820 | 123.27979 | 426 ft | 205 kts | 178° |
| 2025-12-29 09:27 | -12.68011 | 123.28371 | 439 ft | 208 kts | 178° |
| 2025-12-29 09:27 | -12.70875 | 123.28638 | 428 ft | 209 kts | 178° |
| 2025-12-29 09:28 | -12.75280 | 123.29058 | 429 ft | 214 kts | 179° |
| 2025-12-29 09:28 | -12.76724 | 123.29197 | 419 ft | 208 kts | 179° |
| 2025-12-29 09:29 | -12.79590 | 123.29454 | 428 ft | 211 kts | 177° |
| 2025-12-29 09:29 | -12.82505 | 123.29742 | 415 ft | 213 kts | 178° |
| 2025-12-29 09:29 | -12.83997 | 123.29874 | 426 ft | 214 kts | 176° |
| 2025-12-29 09:30 | -12.86893 | 123.30162 | 431 ft | 207 kts | 178° |
| 2025-12-29 09:31 | -12.91113 | 123.30551 | 423 ft | 208 kts | 177° |
| 2025-12-29 09:31 | -12.93939 | 123.30825 | 421 ft | 207 kts | 178° |
| 2025-12-29 09:32 | -12.96827 | 123.31101 | 413 ft | 207 kts | 177° |
| 2025-12-29 09:32 | -12.99654 | 123.31364 | 429 ft | 210 kts | 177° |
| 2025-12-29 09:33 | -13.02515 | 123.31642 | 428 ft | 208 kts | 179° |
| 2025-12-29 09:33 | -13.03975 | 123.31767 | 412 ft | 214 kts | 178° |
| 2025-12-29 09:33 | -13.06941 | 123.32061 | 417 ft | 221 kts | 177° |
| 2025-12-29 09:34 | -13.09934 | 123.32336 | 410 ft | 214 kts | 177° |
| 2025-12-29 09:35 | -13.14361 | 123.32749 | 430 ft | 211 kts | 175° |
| 2025-12-29 09:35 | -13.18893 | 123.33200 | 423 ft | 221 kts | 178° |
| 2025-12-29 09:36 | -13.21873 | 123.33488 | 418 ft | 210 kts | 178° |
| 2025-12-29 09:36 | -13.23341 | 123.33615 | 416 ft | 212 kts | 177° |
| 2025-12-29 09:37 | -13.26243 | 123.33890 | 415 ft | 209 kts | 178° |
| 2025-12-29 09:37 | -13.29207 | 123.34168 | 422 ft | 209 kts | 181° |
| 2025-12-29 09:38 | -13.32145 | 123.34448 | 426 ft | 217 kts | 178° |
| 2025-12-29 09:38 | -13.36634 | 123.34877 | 427 ft | 211 kts | 178° |
| 2025-12-29 09:39 | -13.39660 | 123.35162 | 412 ft | 223 kts | 177° |
| 2025-12-29 09:39 | -13.42642 | 123.35442 | 411 ft | 217 kts | 177° |
| 2025-12-29 09:40 | -13.45648 | 123.35723 | 407 ft | 218 kts | 176° |
| 2025-12-29 09:40 | -13.47160 | 123.35863 | 420 ft | 212 kts | 176° |
| 2025-12-29 09:41 | -13.50116 | 123.36170 | 404 ft | 216 kts | 177° |
| 2025-12-29 09:41 | -13.53043 | 123.36439 | 412 ft | 209 kts | 176° |
| 2025-12-29 09:42 | -13.55932 | 123.36713 | 412 ft | 202 kts | 178° |
| 2025-12-29 09:42 | -13.60191 | 123.37112 | 423 ft | 204 kts | 176° |
| 2025-12-29 09:43 | -13.63021 | 123.37367 | 422 ft | 206 kts | 176° |
| 2025-12-29 09:43 | -13.65864 | 123.37660 | 419 ft | 207 kts | 178° |
| 2025-12-29 09:44 | -13.67276 | 123.37793 | 417 ft | 203 kts | 178° |
| 2025-12-29 09:44 | -13.70169 | 123.38064 | 420 ft | 209 kts | 178° |
| 2025-12-29 09:45 | -13.73039 | 123.38327 | 418 ft | 210 kts | 177° |
| 2025-12-29 09:45 | -13.75962 | 123.38625 | 418 ft | 212 kts | 177° |
| 2025-12-29 09:46 | -13.78834 | 123.38894 | 413 ft | 203 kts | 178° |
| 2025-12-29 09:46 | -13.83074 | 123.39299 | 412 ft | 203 kts | 179° |
| 2025-12-29 09:47 | -13.85926 | 123.39569 | 418 ft | 205 kts | 178° |
| 2025-12-29 09:47 | -13.87351 | 123.39699 | 419 ft | 201 kts | 177° |
| 2025-12-29 09:48 | -13.91700 | 123.40093 | 412 ft | 209 kts | 176° |
| 2025-12-29 09:48 | -13.93179 | 123.40244 | 411 ft | 215 kts | 174° |
| 2025-12-29 09:49 | -13.96118 | 123.40553 | 410 ft | 211 kts | 178° |
| 2025-12-29 09:49 | -13.99020 | 123.40829 | 413 ft | 204 kts | 179° |
| 2025-12-29 09:50 | -14.01900 | 123.41074 | 418 ft | 213 kts | 178° |
| 2025-12-29 09:50 | -14.03368 | 123.41230 | 409 ft | 209 kts | 177° |
| 2025-12-29 09:51 | -14.09166 | 123.41781 | 417 ft | 209 kts | 176° |
| 2025-12-29 09:51 | -14.12068 | 123.42060 | 415 ft | 211 kts | 175° |
| 2025-12-29 09:52 | -14.14969 | 123.42336 | 403 ft | 210 kts | 176° |
| 2025-12-29 09:52 | -14.16425 | 123.42483 | 420 ft | 210 kts | 176° |
| 2025-12-29 09:53 | -14.19298 | 123.42760 | 411 ft | 202 kts | 179° |
| 2025-12-29 09:53 | -14.22149 | 123.43011 | 421 ft | 204 kts | 176° |
| 2025-12-29 09:54 | -14.25073 | 123.43294 | 404 ft | 214 kts | 177° |
| 2025-12-29 09:54 | -14.29494 | 123.43745 | 411 ft | 209 kts | 178° |
| 2025-12-29 09:55 | -14.32416 | 123.44002 | 414 ft | 212 kts | 176° |
| 2025-12-29 09:55 | -14.33891 | 123.44153 | 410 ft | 216 kts | 176° |
| 2025-12-29 09:56 | -14.36884 | 123.44437 | 405 ft | 215 kts | 176° |
| 2025-12-29 09:56 | -14.39873 | 123.44732 | 409 ft | 218 kts | 176° |
| 2025-12-29 09:57 | -14.42805 | 123.45014 | 408 ft | 215 kts | 175° |
| 2025-12-29 09:57 | -14.45739 | 123.45287 | 415 ft | 213 kts | 175° |
| 2025-12-29 09:58 | -14.48725 | 123.45589 | 422 ft | 214 kts | 176° |
| 2025-12-29 09:58 | -14.53177 | 123.45997 | 406 ft | 219 kts | 176° |
| 2025-12-29 09:59 | -14.54676 | 123.46153 | 419 ft | 214 kts | 177° |
| 2025-12-29 09:59 | -14.57712 | 123.46428 | 419 ft | 218 kts | 176° |
| 2025-12-29 10:00 | -14.60711 | 123.46727 | 409 ft | 214 kts | 176° |
| 2025-12-29 10:00 | -14.63701 | 123.47008 | 407 ft | 211 kts | 175° |
| 2025-12-29 10:01 | -14.66650 | 123.47293 | 409 ft | 210 kts | 176° |
| 2025-12-29 10:01 | -14.69549 | 123.47568 | 407 ft | 204 kts | 175° |
| 2025-12-29 10:02 | -14.72394 | 123.47866 | 422 ft | 207 kts | 177° |
| 2025-12-29 10:02 | -14.76674 | 123.48266 | 411 ft | 211 kts | 177° |
| 2025-12-29 10:03 | -14.79570 | 123.48535 | 420 ft | 212 kts | 177° |
| 2025-12-29 10:03 | -14.82582 | 123.48825 | 409 ft | 218 kts | 176° |
| 2025-12-29 10:04 | -14.84114 | 123.48981 | 402 ft | 220 kts | 177° |
| 2025-12-29 10:04 | -14.87130 | 123.49256 | 412 ft | 219 kts | 176° |
| 2025-12-29 10:05 | -14.90104 | 123.49528 | 403 ft | 221 kts | 174° |
| 2025-12-29 10:05 | -14.93108 | 123.49835 | 425 ft | 214 kts | 175° |
| 2025-12-29 10:06 | -14.96022 | 123.50120 | 408 ft | 208 kts | 175° |
| 2025-12-29 10:06 | -15.00356 | 123.50544 | 424 ft | 210 kts | 176° |
| 2025-12-29 10:07 | -15.03274 | 123.50844 | 420 ft | 211 kts | 175° |
| 2025-12-29 10:07 | -15.06223 | 123.51108 | 409 ft | 208 kts | 175° |
| 2025-12-29 10:08 | -15.07663 | 123.51264 | 410 ft | 208 kts | 178° |
| 2025-12-29 10:08 | -15.10574 | 123.51528 | 409 ft | 211 kts | 176° |
| 2025-12-29 10:09 | -15.13520 | 123.51827 | 418 ft | 213 kts | 176° |
| 2025-12-29 10:09 | -15.16500 | 123.52119 | 412 ft | 213 kts | 177° |
| 2025-12-29 10:10 | -15.19455 | 123.52391 | 410 ft | 212 kts | 176° |
| 2025-12-29 10:10 | -15.23866 | 123.52811 | 411 ft | 216 kts | 175° |
| 2025-12-29 10:11 | -15.26833 | 123.53117 | 411 ft | 215 kts | 176° |
| 2025-12-29 10:11 | -15.29312 | 123.53344 | 422 ft | 217 kts | 175° |
| 2025-12-29 10:12 | -15.30813 | 123.53488 | 413 ft | 215 kts | 175° |
| 2025-12-29 10:12 | -15.34276 | 123.53823 | 416 ft | 216 kts | 174° |
| 2025-12-29 10:13 | -15.36787 | 123.54080 | 418 ft | 223 kts | 175° |
| 2025-12-29 10:13 | -15.39846 | 123.54354 | 422 ft | 219 kts | 176° |
| 2025-12-29 10:14 | -15.42891 | 123.54658 | 417 ft | 221 kts | 176° |
| 2025-12-29 10:14 | -15.47419 | 123.55111 | 410 ft | 216 kts | 176° |
| 2025-12-29 10:15 | -15.50399 | 123.55388 | 408 ft | 215 kts | 176° |
| 2025-12-29 10:15 | -15.51890 | 123.55537 | 414 ft | 213 kts | 176° |
| 2025-12-29 10:16 | -15.54781 | 123.55800 | 413 ft | 205 kts | 175° |
| 2025-12-29 10:16 | -15.57636 | 123.56091 | 406 ft | 210 kts | 175° |
| 2025-12-29 10:17 | -15.60496 | 123.56371 | 411 ft | 211 kts | 175° |
| 2025-12-29 10:17 | -15.63415 | 123.56655 | 414 ft | 208 kts | 175° |
| 2025-12-29 10:18 | -15.66362 | 123.56934 | 422 ft | 215 kts | 175° |
| 2025-12-29 10:18 | -15.70897 | 123.57373 | 414 ft | 216 kts | 176° |
| 2025-12-29 10:19 | -15.73923 | 123.57673 | 413 ft | 215 kts | 176° |
| 2025-12-29 10:19 | -15.75435 | 123.57816 | 419 ft | 223 kts | 176° |
| 2025-12-29 10:20 | -15.78479 | 123.58107 | 403 ft | 218 kts | 175° |
| 2025-12-29 10:20 | -15.81463 | 123.58387 | 417 ft | 215 kts | 174° |
| 2025-12-29 10:21 | -15.84372 | 123.58691 | 416 ft | 208 kts | 174° |
| 2025-12-29 10:21 | -15.87298 | 123.58973 | 420 ft | 214 kts | 174° |
| 2025-12-29 10:22 | -15.90209 | 123.59255 | 423 ft | 212 kts | 175° |
| 2025-12-29 10:22 | -15.94650 | 123.59702 | 407 ft | 215 kts | 178° |
| 2025-12-29 10:23 | -15.97644 | 123.59975 | 421 ft | 216 kts | 176° |
| 2025-12-29 10:23 | -15.99133 | 123.60119 | 413 ft | 214 kts | 176° |
| 2025-12-29 10:24 | -16.02126 | 123.60408 | 403 ft | 215 kts | 174° |
| 2025-12-29 10:24 | -16.04984 | 123.60272 | 774 ft | 195 kts | 201° |
| 2025-12-29 10:25 | -16.07480 | 123.59441 | 899 ft | 170 kts | 200° |
| 2025-12-29 10:25 | -16.09019 | 123.60169 | 458 ft | 110 kts | 121° |
| 2025-12-29 10:26 | -16.09626 | 123.61162 | 333 ft | 15 kts | 121° |